Time;durP1;ratioP1;P1;durP2;ratioP2;P2;SDS_P1;SDS_P2;PMS_P1;PMS_P2;Temp;Humidity;BMP_temperature;BMP_pressure;BME280_temperature;BME280_humidity;BME280_pressure;Samples;Min_cycle;Max_cycle;Signal;HPM_P1;HPM_P2
2021/01/02 00:00:47;;;;;;;4.95;2.90;;;;;;;-1.12;69.76;93742.81;5053276;28;19913;-47
2021/01/02 00:03:49;;;;;;;13.18;7.03;;;;;;;-1.26;70.00;93730.03;5053361;28;20112;-44
2021/01/02 00:06:20;;;;;;;13.23;6.38;;;;;;;-1.08;69.36;93738.72;5053151;28;20032;-44
2021/01/02 00:08:49;;;;;;;14.73;8.10;;;;;;;-1.38;69.32;93739.16;5053442;28;20024;-45
2021/01/02 00:11:26;;;;;;;13.77;6.25;;;;;;;-1.18;69.64;93742.00;5053208;28;20127;-43
2021/01/02 00:14:00;;;;;;;10.68;6.13;;;;;;;-1.14;69.41;93743.31;5053318;28;20025;-43
2021/01/02 00:16:44;;;;;;;19.40;7.80;;;;;;;-1.00;68.35;93739.09;5052882;28;20504;-45
2021/01/02 00:20:00;;;;;;;16.65;7.70;;;;;;;-1.36;69.19;93751.03;5053123;28;20029;-47
2021/01/02 00:22:44;;;;;;;18.65;8.35;;;;;;;-1.22;69.54;93755.72;5011242;28;20044;-47
2021/01/02 00:25:14;;;;;;;30.73;12.18;;;;;;;-1.22;69.50;93752.25;5049393;28;20049;-49
2021/01/02 00:28:01;;;;;;;23.67;11.82;;;;;;;-1.44;71.05;93755.31;5052696;28;20087;-48
2021/01/02 00:30:51;;;;;;;23.00;11.10;;;;;;;-1.47;70.66;93755.50;5064350;28;20174;-44
2021/01/02 00:33:28;;;;;;;14.23;6.22;;;;;;;-1.61;70.23;93746.13;5072985;28;20040;-45
2021/01/02 00:36:00;;;;;;;13.82;6.50;;;;;;;-1.41;69.47;93761.75;5055877;28;20036;-45
2021/01/02 00:38:26;;;;;;;16.90;6.43;;;;;;;-1.31;69.09;93763.94;5054716;28;20037;-44
2021/01/02 00:40:51;;;;;;;14.70;7.78;;;;;;;-1.27;69.15;93759.06;5054731;28;20028;-44
2021/01/02 00:43:17;;;;;;;18.55;9.50;;;;;;;-1.26;69.57;93762.53;5072728;28;20089;-44
2021/01/02 00:45:43;;;;;;;26.98;12.43;;;;;;;-1.31;69.76;93763.19;5072194;28;20048;-44
2021/01/02 00:48:08;;;;;;;12.52;6.78;;;;;;;-1.55;70.20;93772.09;5072435;28;20032;-47
2021/01/02 00:50:34;;;;;;;12.85;7.70;;;;;;;-1.47;69.95;93779.88;5054546;28;20028;-42
2021/01/02 00:53:04;;;;;;;21.35;10.25;;;;;;;-1.47;70.28;93772.47;5072206;28;20115;-42
2021/01/02 00:55:39;;;;;;;21.35;11.20;;;;;;;-1.81;71.11;93773.03;5054566;28;20036;-46
2021/01/02 00:58:12;;;;;;;25.05;12.82;;;;;;;-1.58;71.19;93769.53;5072256;28;20117;-47
2021/01/02 01:00:41;;;;;;;33.97;12.93;;;;;;;-1.61;70.53;93773.19;5072518;28;20028;-47
2021/01/02 01:03:41;;;;;;;36.20;14.88;;;;;;;-1.52;70.85;93773.88;5072340;28;20024;-47
2021/01/02 01:06:10;;;;;;;26.35;12.32;;;;;;;-1.49;70.41;93771.47;5072067;28;20507;-46
2021/01/02 01:08:42;;;;;;;22.00;11.07;;;;;;;-1.63;70.47;93772.91;5071994;28;20024;-47
2021/01/02 01:11:12;;;;;;;21.05;10.35;;;;;;;-1.56;70.05;93767.16;5071642;28;20056;-44
2021/01/02 01:13:39;;;;;;;17.08;8.55;;;;;;;-1.59;69.53;93774.25;5071662;28;20031;-43
2021/01/02 01:16:04;;;;;;;23.83;9.48;;;;;;;-1.69;69.67;93770.09;5071367;28;20039;-43
2021/01/02 01:18:54;;;;;;;15.30;8.25;;;;;;;-1.57;69.18;93758.28;5071399;28;20401;-43
2021/01/02 01:21:20;;;;;;;17.20;9.40;;;;;;;-1.59;69.33;93760.69;5053618;28;20032;-48
2021/01/02 01:24:30;;;;;;;15.75;7.10;;;;;;;-1.62;68.81;93758.16;5053751;28;20028;-45
2021/01/02 01:27:15;;;;;;;7.97;4.07;;;;;;;-1.96;69.87;93756.00;5057402;28;20032;-45
2021/01/02 01:29:48;;;;;;;7.50;3.05;;;;;;;-2.03;70.45;93727.34;5071724;28;20626;-46
2021/01/02 01:32:21;;;;;;;16.83;7.65;;;;;;;-1.80;69.21;93750.91;5054058;28;20051;-46
2021/01/02 01:34:47;;;;;;;16.80;8.52;;;;;;;-1.69;68.62;93737.59;5071594;28;20033;-44
2021/01/02 01:37:15;;;;;;;17.17;9.70;;;;;;;-1.61;68.51;93733.34;5071581;28;20732;-43
2021/01/02 01:39:48;;;;;;;22.63;10.80;;;;;;;-1.46;69.22;93771.28;5071471;28;20032;-44
2021/01/02 01:42:16;;;;;;;19.13;8.48;;;;;;;-1.76;69.26;93740.69;5071756;28;20051;-44
2021/01/02 01:44:43;;;;;;;26.92;11.60;;;;;;;-1.84;69.70;93761.16;5071427;28;20437;-46
2021/01/02 01:47:20;;;;;;;19.40;9.43;;;;;;;-1.96;70.32;93762.16;5071379;28;20035;-45
2021/01/02 01:49:57;;;;;;;12.65;7.47;;;;;;;-1.94;69.37;93772.50;5071521;28;20043;-45
2021/01/02 01:52:48;;;;;;;16.63;7.88;;;;;;;-2.24;70.34;93768.94;5071226;28;20037;-45
2021/01/02 01:55:18;;;;;;;17.08;7.60;;;;;;;-2.13;70.53;93776.53;5071422;28;20024;-44
2021/01/02 01:57:45;;;;;;;16.55;6.32;;;;;;;-2.14;70.89;93770.38;5071348;28;20028;-43
2021/01/02 02:00:16;;;;;;;17.65;6.70;;;;;;;-2.31;72.60;93756.50;5071148;28;20147;-45
2021/01/02 02:02:47;;;;;;;15.63;7.82;;;;;;;-2.20;72.02;93758.69;5071862;28;20060;-44
2021/01/02 02:05:20;;;;;;;17.98;7.63;;;;;;;-2.32;71.88;93763.09;5071808;28;20115;-44
2021/01/02 02:08:02;;;;;;;14.85;8.15;;;;;;;-2.18;71.07;93760.94;5071923;28;20028;-44
2021/01/02 02:10:43;;;;;;;12.32;6.03;;;;;;;-2.15;69.86;93766.19;5071837;28;20043;-43
2021/01/02 02:13:18;;;;;;;12.13;4.88;;;;;;;-2.16;70.12;93766.63;5071703;28;20021;-43
2021/01/02 02:15:55;;;;;;;9.90;4.65;;;;;;;-2.12;69.32;93770.66;5071774;28;20032;-43
2021/01/02 02:18:22;;;;;;;18.70;7.13;;;;;;;-2.10;69.26;93762.84;5071500;28;20036;-43
2021/01/02 02:20:50;;;;;;;15.30;7.38;;;;;;;-2.04;70.00;93763.72;5071786;28;20024;-46
2021/01/02 02:23:22;;;;;;;14.90;7.30;;;;;;;-2.09;70.14;93772.47;5071592;28;20031;-43
2021/01/02 02:25:48;;;;;;;17.38;6.63;;;;;;;-2.08;70.96;93768.53;5071722;28;20036;-45
2021/01/02 02:28:43;;;;;;;16.80;8.13;;;;;;;-2.06;70.95;93765.38;5071510;28;20021;-44
2021/01/02 02:31:09;;;;;;;18.95;7.28;;;;;;;-2.17;70.96;93755.09;5071463;28;20626;-44
2021/01/02 02:33:35;;;;;;;16.50;8.43;;;;;;;-2.30;71.16;93762.66;5053532;28;20039;-45
2021/01/02 02:36:06;;;;;;;15.70;8.10;;;;;;;-2.36;71.04;93759.09;5071610;28;20029;-46
2021/01/02 02:38:36;;;;;;;21.45;9.05;;;;;;;-2.39;72.20;93760.75;5070659;28;20085;-45
2021/01/02 02:41:06;;;;;;;20.88;9.60;;;;;;;-2.28;71.52;93762.19;5053462;28;20520;-46
2021/01/02 02:43:32;;;;;;;19.08;8.95;;;;;;;-2.48;71.49;93765.44;5071266;28;20024;-43
2021/01/02 02:45:58;;;;;;;18.17;7.40;;;;;;;-2.50;71.13;93767.84;5053628;28;20404;-48
2021/01/02 02:48:24;;;;;;;15.30;7.50;;;;;;;-2.42;70.95;93766.31;5053506;28;20032;-47
2021/01/02 02:50:53;;;;;;;17.10;7.85;;;;;;;-2.38;71.18;93764.19;5071285;28;20036;-48
2021/01/02 02:53:18;;;;;;;22.08;9.02;;;;;;;-2.43;70.63;93765.59;5053568;28;20035;-48
2021/01/02 02:55:44;;;;;;;15.88;8.35;;;;;;;-2.51;71.13;93752.81;5071272;28;20036;-48
2021/01/02 02:58:10;;;;;;;19.38;7.15;;;;;;;-2.45;70.58;93764.53;5071249;28;20036;-47
2021/01/02 03:00:37;;;;;;;17.80;7.63;;;;;;;-2.24;69.54;93768.19;5071198;28;20470;-49
2021/01/02 03:03:03;;;;;;;17.10;7.72;;;;;;;-2.24;69.48;93765.47;5071148;28;20059;-50
2021/01/02 03:05:29;;;;;;;25.73;8.48;;;;;;;-2.25;69.51;93777.50;5071122;28;20044;-46
2021/01/02 03:07:56;;;;;;;29.45;11.50;;;;;;;-2.67;69.90;93740.47;5071286;28;20040;-48
2021/01/02 03:10:22;;;;;;;23.88;9.98;;;;;;;-2.48;69.42;93774.31;5053553;28;20086;-48
2021/01/02 03:12:52;;;;;;;22.20;11.02;;;;;;;-2.70;69.41;93773.03;5071287;28;20102;-46
2021/01/02 03:15:20;;;;;;;13.98;6.65;;;;;;;-2.70;69.85;93764.91;5071121;28;20032;-53
2021/01/02 03:17:46;;;;;;;11.77;5.40;;;;;;;-2.62;69.85;93779.63;5071217;28;20130;-51
2021/01/02 03:20:13;;;;;;;8.63;3.97;;;;;;;-2.46;69.80;93773.84;5070994;28;20028;-50
2021/01/02 03:22:43;;;;;;;8.93;4.93;;;;;;;-2.38;70.19;93767.66;5053363;28;20037;-49
2021/01/02 03:25:10;;;;;;;12.02;4.57;;;;;;;-2.37;69.64;93771.84;5070913;28;20405;-51
2021/01/02 03:27:36;;;;;;;9.70;4.65;;;;;;;-2.33;69.81;93779.78;5071104;28;20036;-50
2021/01/02 03:30:03;;;;;;;13.85;5.57;;;;;;;-2.44;69.85;93761.38;5071048;28;20056;-47
2021/01/02 03:32:29;;;;;;;9.73;4.75;;;;;;;-2.26;69.92;93773.31;5070532;28;20032;-47
2021/01/02 03:34:54;;;;;;;12.00;5.97;;;;;;;-2.23;70.16;93772.41;5070947;28;20467;-48
2021/01/02 03:37:20;;;;;;;11.88;5.05;;;;;;;-2.17;69.86;93771.31;5070778;28;20543;-49
2021/01/02 03:39:45;;;;;;;9.50;4.45;;;;;;;-2.34;69.70;93779.03;5070668;28;20024;-44
2021/01/02 03:42:10;;;;;;;13.65;5.40;;;;;;;-2.54;70.49;93783.50;5070748;28;20025;-45
2021/01/02 03:44:36;;;;;;;10.50;5.47;;;;;;;-2.46;70.28;93779.25;5070659;28;20098;-41
2021/01/02 03:47:08;;;;;;;11.02;4.72;;;;;;;-2.48;70.25;93768.16;5070813;28;20031;-45
2021/01/02 03:49:34;;;;;;;12.20;5.53;;;;;;;-2.45;70.84;93791.56;5070792;28;20021;-44
2021/01/02 03:52:08;;;;;;;8.90;5.20;;;;;;;-2.47;70.21;93785.88;5071052;28;20040;-45
2021/01/02 03:54:34;;;;;;;17.52;6.55;;;;;;;-2.36;69.92;93792.25;5063494;28;20413;-44
2021/01/02 03:57:00;;;;;;;11.50;4.88;;;;;;;-2.26;68.94;93798.41;5064757;28;20028;-45
2021/01/02 03:59:25;;;;;;;7.82;3.65;;;;;;;-2.36;68.99;93794.25;5056815;28;20036;-45
2021/01/02 04:01:58;;;;;;;7.05;3.30;;;;;;;-2.48;68.68;93795.19;5054198;28;20017;-45
2021/01/02 04:04:24;;;;;;;9.25;4.13;;;;;;;-2.41;68.55;93794.84;5054251;28;20036;-45
2021/01/02 04:06:52;;;;;;;12.50;4.38;;;;;;;-2.46;68.72;93793.53;5054154;28;20032;-44
2021/01/02 04:09:21;;;;;;;8.27;3.80;;;;;;;-2.46;68.49;93790.06;5054158;28;20063;-45
2021/01/02 04:11:47;;;;;;;6.63;3.40;;;;;;;-2.41;68.66;93801.03;5054250;28;20428;-45
2021/01/02 04:14:13;;;;;;;8.95;3.58;;;;;;;-2.72;69.53;93803.22;5054059;28;20122;-44
2021/01/02 04:16:39;;;;;;;10.20;3.97;;;;;;;-2.71;69.60;93799.31;5054044;28;20028;-47
2021/01/02 04:19:05;;;;;;;11.93;2.95;;;;;;;-2.80;69.85;93809.41;5053766;28;20029;-47
2021/01/02 04:21:32;;;;;;;6.28;2.83;;;;;;;-2.87;69.77;93807.75;5053913;28;20029;-46
2021/01/02 04:23:57;;;;;;;7.50;3.83;;;;;;;-2.84;70.06;93806.88;5053911;28;20028;-45
2021/01/02 04:26:24;;;;;;;9.88;4.95;;;;;;;-2.73;69.54;93811.78;5054005;28;20024;-46
2021/01/02 04:28:50;;;;;;;16.45;7.57;;;;;;;-2.97;69.87;93811.69;5036200;28;20029;-45
2021/01/02 04:31:17;;;;;;;16.55;8.07;;;;;;;-2.97;70.57;93808.25;5053646;28;20107;-44
2021/01/02 04:33:42;;;;;;;13.55;6.57;;;;;;;-3.05;70.80;93823.25;5053598;28;20037;-45
2021/01/02 04:36:08;;;;;;;12.98;6.65;;;;;;;-3.00;71.50;93811.84;5053575;28;20028;-44
2021/01/02 04:38:33;;;;;;;13.38;5.40;;;;;;;-2.99;71.61;93819.50;5053636;28;20036;-43
2021/01/02 04:40:59;;;;;;;8.65;4.43;;;;;;;-2.94;70.86;93820.81;5053648;28;20078;-43
2021/01/02 04:43:25;;;;;;;11.38;5.32;;;;;;;-2.79;70.44;93824.38;5053319;28;20025;-44
2021/01/02 04:45:51;;;;;;;10.77;4.90;;;;;;;-2.99;71.44;93826.84;5053499;28;20492;-45
2021/01/02 04:48:16;;;;;;;14.15;5.60;;;;;;;-3.11;70.87;93820.41;5035641;28;20113;-44
2021/01/02 04:50:42;;;;;;;11.18;5.88;;;;;;;-2.88;70.10;93827.13;5053302;28;20072;-46
2021/01/02 04:53:08;;;;;;;17.50;6.60;;;;;;;-2.81;70.77;93834.91;5053406;28;20025;-44
2021/01/02 04:55:39;;;;;;;19.00;7.22;;;;;;;-2.89;70.81;93826.38;5035609;28;20477;-45
2021/01/02 04:58:06;;;;;;;9.07;3.92;;;;;;;-2.88;70.55;93827.88;5053288;28;20044;-44
2021/01/02 05:00:32;;;;;;;8.57;4.25;;;;;;;-2.89;69.65;93839.13;5052873;28;20033;-46
2021/01/02 05:02:57;;;;;;;8.38;4.03;;;;;;;-2.86;69.66;93847.09;5034397;28;20028;-46
2021/01/02 05:05:23;;;;;;;10.15;4.65;;;;;;;-2.93;69.33;93850.09;5035450;28;20028;-44
2021/01/02 05:07:48;;;;;;;20.17;6.75;;;;;;;-3.02;69.46;93852.06;5053046;28;20029;-45
2021/01/02 05:10:14;;;;;;;10.10;5.32;;;;;;;-3.15;69.87;93854.91;5053094;28;20051;-43
2021/01/02 05:12:39;;;;;;;70.13;25.08;;;;;;;-3.28;70.66;93848.91;5052754;28;20036;-45
2021/01/02 05:15:12;;;;;;;63.47;22.42;;;;;;;-3.15;71.63;93863.03;5052823;28;20090;-47
2021/01/02 05:17:39;;;;;;;44.72;17.85;;;;;;;-3.07;71.14;93867.66;5052839;28;20024;-47
2021/01/02 05:20:23;;;;;;;42.42;15.07;;;;;;;-3.16;71.22;93872.31;5052734;28;20033;-52
2021/01/02 05:22:48;;;;;;;25.10;11.48;;;;;;;-3.15;71.19;93869.19;5052830;28;20040;-50
2021/01/02 05:25:13;;;;;;;21.27;9.60;;;;;;;-3.46;71.43;93865.84;5052597;28;20020;-48
2021/01/02 05:27:42;;;;;;;17.10;7.07;;;;;;;-3.63;71.59;93848.44;5052599;28;20032;-47
2021/01/02 05:30:43;;;;;;;11.40;5.85;;;;;;;-3.32;71.35;93876.06;5052654;28;20029;-47
2021/01/02 05:33:13;;;;;;;16.05;6.00;;;;;;;-3.16;71.27;93867.66;5035099;28;20039;-48
2021/01/02 05:35:46;;;;;;;13.55;6.20;;;;;;;-3.17;70.84;93870.81;5052615;28;20444;-48
2021/01/02 05:38:15;;;;;;;16.25;7.05;;;;;;;-3.16;71.17;93873.06;5052365;28;20061;-46
2021/01/02 05:40:50;;;;;;;29.20;11.88;;;;;;;-2.98;70.85;93877.72;5052409;28;20102;-47
2021/01/02 05:43:17;;;;;;;30.80;13.30;;;;;;;-2.89;71.28;93868.84;5052439;28;20028;-47
2021/01/02 05:45:43;;;;;;;48.90;20.83;;;;;;;-2.88;70.52;93865.69;5052154;28;20044;-46
2021/01/02 05:48:59;;;;;;;41.95;18.65;;;;;;;-2.84;69.96;93879.06;5052178;28;20036;-45
2021/01/02 05:51:26;;;;;;;33.92;15.75;;;;;;;-2.90;69.10;93878.91;5052035;28;20251;-47
2021/01/02 05:54:07;;;;;;;32.13;13.20;;;;;;;-3.15;69.57;93874.56;5034490;28;20032;-48
2021/01/02 05:56:45;;;;;;;14.70;7.47;;;;;;;-3.30;70.16;93887.19;5052169;28;20043;-50
2021/01/02 05:59:26;;;;;;;33.53;12.88;;;;;;;-3.43;70.28;93869.59;5052052;28;20031;-49
2021/01/02 06:01:51;;;;;;;39.83;19.25;;;;;;;-3.33;69.98;93890.00;5051968;28;20090;-48
2021/01/02 06:04:17;;;;;;;38.58;17.13;;;;;;;-3.26;69.95;93890.47;5052000;28;20422;-50
2021/01/02 06:06:42;;;;;;;38.22;15.32;;;;;;;-3.27;70.07;93894.34;5051893;28;20032;-47
2021/01/02 06:09:08;;;;;;;42.72;17.55;;;;;;;-3.27;70.90;93888.22;5034130;28;20023;-49
2021/01/02 06:11:34;;;;;;;35.60;16.38;;;;;;;-3.19;70.30;93889.44;5034307;28;20468;-48
2021/01/02 06:13:59;;;;;;;38.72;17.70;;;;;;;-3.07;69.74;93902.00;5051614;28;20025;-51
2021/01/02 06:16:25;;;;;;;33.67;14.98;;;;;;;-3.05;69.66;93899.63;5033917;28;20040;-47
2021/01/02 06:18:51;;;;;;;23.88;12.27;;;;;;;-3.17;69.92;93895.88;5050205;28;20033;-51
2021/01/02 06:21:18;;;;;;;30.88;15.73;;;;;;;-3.31;69.59;93869.47;5071571;28;20099;-47
2021/01/02 06:23:45;;;;;;;32.47;16.42;;;;;;;-3.10;69.82;93909.06;5071780;28;20047;-47
2021/01/02 06:26:12;;;;;;;37.05;16.85;;;;;;;-3.05;69.96;93905.00;5071663;28;20500;-47
2021/01/02 06:28:39;;;;;;;39.58;16.88;;;;;;;-2.93;70.25;93903.38;5071598;28;20028;-47
2021/01/02 06:31:06;;;;;;;42.55;20.10;;;;;;;-2.89;69.46;93896.63;5071446;28;20089;-46
2021/01/02 06:33:32;;;;;;;39.17;19.92;;;;;;;-2.87;69.97;93912.38;5071658;28;20027;-45
2021/01/02 06:35:58;;;;;;;44.53;20.65;;;;;;;-3.10;70.93;93903.66;5071518;28;20481;-48
2021/01/02 06:38:24;;;;;;;40.67;19.95;;;;;;;-2.98;70.31;93914.78;5071248;28;20024;-51
2021/01/02 06:40:52;;;;;;;36.53;17.58;;;;;;;-2.93;70.11;93919.59;5071397;28;20032;-47
2021/01/02 06:43:37;;;;;;;40.65;20.17;;;;;;;-3.01;70.39;93924.53;5071392;28;20024;-46
2021/01/02 06:46:02;;;;;;;38.47;17.25;;;;;;;-2.91;69.95;93920.63;5071396;28;20509;-47
2021/01/02 06:48:31;;;;;;;27.90;14.35;;;;;;;-3.00;70.19;93919.88;5071369;28;20107;-46
2021/01/02 06:50:57;;;;;;;;;;;;;;;-2.99;70.22;93924.84;5071759;28;20040;-46
2021/01/02 06:53:25;;;;;;;77.57;30.35;;;;;;;-3.07;70.31;93918.97;5071423;28;20006;-46
2021/01/02 06:56:00;;;;;;;67.80;30.13;;;;;;;-2.93;70.54;93927.69;5053969;28;20032;-47
2021/01/02 06:58:47;;;;;;;71.88;33.97;;;;;;;-2.81;70.19;93919.41;5051310;28;20029;-46
2021/01/02 07:01:15;;;;;;;78.70;38.20;;;;;;;-2.71;69.68;93917.47;5051377;28;20420;-45
2021/01/02 07:03:44;;;;;;;122.47;53.90;;;;;;;-2.64;69.63;93926.00;5051296;28;20088;-46
2021/01/02 07:06:21;;;;;;;66.53;32.55;;;;;;;-2.32;69.80;93930.03;5051235;28;20274;-47
2021/01/02 07:08:53;;;;;;;69.45;31.70;;;;;;;-2.26;69.38;93925.50;5051243;28;20108;-48
2021/01/02 07:11:29;;;;;;;87.70;42.15;;;;;;;-2.16;69.92;93935.06;5051222;28;20021;-51
2021/01/02 07:14:07;;;;;;;74.95;35.72;;;;;;;-2.23;70.16;93934.66;5050895;28;20037;-47
2021/01/02 07:16:34;;;;;;;69.30;34.72;;;;;;;-2.21;70.69;93927.59;5050922;28;20029;-45
2021/01/02 07:19:00;;;;;;;108.05;42.80;;;;;;;-2.01;70.32;93933.22;5050913;28;20079;-44
2021/01/02 07:21:38;;;;;;;88.68;36.33;;;;;;;-1.99;70.67;93936.22;5051210;28;20049;-45
2021/01/02 07:24:42;;;;;;;251.63;80.27;;;;;;;-1.85;71.71;93932.88;5051198;28;20068;-45
2021/01/02 07:27:14;;;;;;;184.00;66.05;;;;;;;-1.70;71.78;93925.59;4974244;28;20169;-46
2021/01/02 07:29:46;;;;;;;153.77;52.20;;;;;;;-1.42;71.76;93928.16;4974182;28;20042;-49
2021/01/02 07:32:14;;;;;;;88.30;42.60;;;;;;;-0.95;70.25;93933.56;5022521;28;20037;-46
2021/01/02 07:34:44;;;;;;;121.93;49.55;;;;;;;-0.65;69.56;93935.13;5062401;28;20395;-49
2021/01/02 07:37:14;;;;;;;71.40;31.52;;;;;;;-0.80;70.40;93910.69;5063375;28;20028;-45
2021/01/02 07:39:40;;;;;;;94.18;37.13;;;;;;;-0.65;70.96;93934.41;5065153;28;20409;-46
2021/01/02 07:42:09;;;;;;;102.50;33.78;;;;;;;-0.57;71.55;93930.84;5063496;28;20028;-50
2021/01/02 07:44:35;;;;;;;35.30;17.63;;;;;;;-0.53;72.17;93928.72;5063404;28;20044;-46
2021/01/02 07:47:02;;;;;;;32.80;14.57;;;;;;;-0.28;71.78;93922.72;5050061;28;20123;-47
2021/01/02 07:49:28;;;;;;;36.85;13.38;;;;;;;-0.21;71.42;93902.63;5062380;28;20070;-47
2021/01/02 07:51:54;;;;;;;18.77;9.57;;;;;;;0.65;70.27;93911.84;5040021;28;20037;-47
2021/01/02 07:54:32;;;;;;;18.90;8.50;;;;;;;1.45;67.96;93927.41;5053777;28;20031;-48
2021/01/02 07:56:58;;;;;;;19.20;9.02;;;;;;;2.25;65.23;93931.16;5054412;28;20048;-49
2021/01/02 07:59:24;;;;;;;50.63;18.48;;;;;;;2.59;63.73;93924.72;5069633;28;20482;-47
2021/01/02 08:01:51;;;;;;;34.25;14.43;;;;;;;3.32;61.97;93909.44;5074147;28;20032;-45
2021/01/02 08:04:17;;;;;;;14.85;6.85;;;;;;;4.44;58.88;93923.56;5074325;28;20024;-47
2021/01/02 08:06:47;;;;;;;122.63;37.95;;;;;;;5.50;55.74;93909.66;5074025;28;20089;-47
2021/01/02 08:09:12;;;;;;;344.15;89.00;;;;;;;5.99;53.63;93900.44;5074146;28;20025;-47
2021/01/02 08:11:39;;;;;;;151.32;45.28;;;;;;;6.98;51.19;93900.88;5074115;28;20029;-47
2021/01/02 08:14:04;;;;;;;144.80;41.45;;;;;;;8.05;49.09;93899.84;5056101;28;20059;-46
2021/01/02 08:16:29;;;;;;;52.53;17.75;;;;;;;8.97;47.06;93906.41;5074127;28;20063;-47
2021/01/02 08:19:07;;;;;;;30.27;14.13;;;;;;;9.80;44.58;93899.31;5073941;28;20412;-48
2021/01/02 08:21:38;;;;;;;35.45;12.52;;;;;;;10.71;42.62;93917.63;5074048;28;20036;-49
2021/01/02 08:24:12;;;;;;;23.05;10.40;;;;;;;11.54;39.91;93906.50;5073999;28;20036;-45
2021/01/02 08:26:37;;;;;;;24.60;12.70;;;;;;;12.12;39.58;93910.13;5056150;28;20040;-45
2021/01/02 08:29:03;;;;;;;19.88;12.40;;;;;;;12.95;37.47;93899.22;5055779;28;20024;-45
2021/01/02 08:31:31;;;;;;;23.50;12.70;;;;;;;13.74;35.51;93908.44;5056004;28;20115;-44
2021/01/02 08:33:57;;;;;;;15.35;10.05;;;;;;;14.61;34.21;93897.41;5055795;28;20119;-45
2021/01/02 08:36:23;;;;;;;14.07;6.82;;;;;;;13.89;34.63;93902.84;5073667;28;20066;-45
2021/01/02 08:39:00;;;;;;;15.00;7.28;;;;;;;12.95;36.68;93904.03;5073343;28;20032;-45
2021/01/02 08:41:29;;;;;;;10.95;6.53;;;;;;;13.93;35.77;93908.75;5087434;28;20058;-43
2021/01/02 08:43:55;;;;;;;11.88;6.45;;;;;;;14.73;34.56;93899.16;5093593;28;20121;-45
2021/01/02 08:46:24;;;;;;;12.20;7.90;;;;;;;15.56;33.08;93904.13;5093719;28;20459;-45
2021/01/02 08:48:50;;;;;;;13.85;8.23;;;;;;;16.00;31.20;93904.25;5093341;28;20027;-48
2021/01/02 08:51:25;;;;;;;17.58;10.80;;;;;;;16.80;30.36;93900.88;5083430;28;20028;-46
2021/01/02 08:53:51;;;;;;;12.45;8.02;;;;;;;17.46;29.34;93886.44;5073019;28;20158;-46
2021/01/02 08:56:27;;;;;;;13.43;6.93;;;;;;;18.07;28.63;93889.69;5073405;28;20028;-44
2021/01/02 08:58:53;;;;;;;7.90;4.13;;;;;;;17.65;29.40;93897.69;5073243;28;20025;-45
2021/01/02 09:01:19;;;;;;;8.38;3.65;;;;;;;16.77;31.18;93891.59;5073188;28;20024;-46
2021/01/02 09:03:45;;;;;;;7.75;5.07;;;;;;;17.89;30.33;93885.53;5070143;28;20086;-47
2021/01/02 09:06:26;;;;;;;24.88;13.65;;;;;;;18.26;29.11;93888.94;5071154;28;20467;-46
2021/01/02 09:09:08;;;;;;;46.72;23.35;;;;;;;19.17;28.03;93884.94;5067306;28;20077;-49
2021/01/02 09:11:50;;;;;;;17.48;11.35;;;;;;;19.51;27.54;93873.31;5066652;28;20670;-45
2021/01/02 09:14:16;;;;;;;19.85;12.13;;;;;;;20.18;26.53;93886.91;5071662;28;20024;-49
2021/01/02 09:16:58;;;;;;;28.88;17.15;;;;;;;20.78;25.46;93876.06;5071646;28;20033;-52
2021/01/02 09:19:24;;;;;;;35.50;21.70;;;;;;;20.75;25.10;93868.84;5071832;28;20028;-43
2021/01/02 09:21:50;;;;;;;66.68;34.97;;;;;;;19.54;27.57;93871.41;5071419;28;20425;-43
2021/01/02 09:24:22;;;;;;;32.55;21.25;;;;;;;19.97;26.90;93870.09;5071372;28;20032;-46
2021/01/02 09:26:49;;;;;;;33.63;23.00;;;;;;;20.80;25.78;93856.56;5071301;28;20028;-49
2021/01/02 09:29:16;;;;;;;26.75;17.65;;;;;;;21.62;25.29;93869.34;5071181;28;20480;-46
2021/01/02 09:31:42;;;;;;;25.88;17.00;;;;;;;21.97;24.35;93862.97;5071008;28;20031;-47
2021/01/02 09:34:08;;;;;;;22.20;13.25;;;;;;;22.10;24.29;93865.88;5070351;28;20041;-46
2021/01/02 09:36:33;;;;;;;13.23;8.10;;;;;;;21.73;23.51;93865.78;5071052;28;20035;-46
2021/01/02 09:38:59;;;;;;;4.57;3.00;;;;;;;20.98;24.39;93863.31;5071736;28;20115;-47
2021/01/02 09:41:26;;;;;;;2.95;2.63;;;;;;;20.45;24.93;93850.09;5074130;28;20024;-47
2021/01/02 09:43:56;;;;;;;2.67;2.05;;;;;;;20.01;24.87;93855.63;5083982;28;20044;-46
2021/01/02 09:46:23;;;;;;;2.72;1.98;;;;;;;18.32;27.40;93841.84;5066259;28;20032;-46
2021/01/02 09:48:50;;;;;;;2.88;1.90;;;;;;;18.30;26.81;93829.81;5076067;28;20085;-46
2021/01/02 09:51:17;;;;;;;3.05;1.90;;;;;;;18.86;27.40;93842.94;5090916;28;20032;-43
2021/01/02 09:53:42;;;;;;;5.80;2.70;;;;;;;18.81;27.48;93849.59;5072271;28;20060;-46
2021/01/02 09:56:08;;;;;;;4.90;2.55;;;;;;;18.07;27.99;93841.44;5070900;28;20052;-44
2021/01/02 09:58:34;;;;;;;3.85;2.38;;;;;;;17.09;29.32;93843.16;5070533;28;20488;-44
2021/01/02 10:00:59;;;;;;;4.60;2.65;;;;;;;16.91;29.55;93839.72;5070494;28;20036;-43
2021/01/02 10:03:25;;;;;;;4.07;1.95;;;;;;;16.64;29.56;93834.16;5070479;28;20643;-44
2021/01/02 10:05:51;;;;;;;2.85;1.55;;;;;;;16.57;29.61;93828.69;5070587;28;20112;-43
2021/01/02 10:08:16;;;;;;;2.58;2.08;;;;;;;17.33;29.39;93828.25;5073499;28;20036;-42
2021/01/02 10:10:42;;;;;;;2.92;1.60;;;;;;;18.37;27.89;93824.03;5069018;28;20111;-44
2021/01/02 10:13:07;;;;;;;3.33;2.00;;;;;;;18.02;27.83;93804.06;5069473;28;20454;-44
2021/01/02 10:15:33;;;;;;;2.95;1.45;;;;;;;18.36;26.60;93817.00;5068413;28;20020;-44
2021/01/02 10:17:58;;;;;;;3.78;2.08;;;;;;;18.48;26.70;93812.28;5068929;28;20473;-48
2021/01/02 10:20:24;;;;;;;3.97;1.80;;;;;;;18.58;26.37;93812.97;5068750;28;20513;-49
2021/01/02 10:22:50;;;;;;;3.53;2.08;;;;;;;18.31;25.83;93797.72;5064397;28;20056;-47
2021/01/02 10:25:15;;;;;;;2.85;1.73;;;;;;;16.88;28.80;93809.47;5058719;28;20044;-52
2021/01/02 10:27:41;;;;;;;4.47;2.22;;;;;;;17.53;26.81;93809.50;5059138;28;20042;-50
2021/01/02 10:30:09;;;;;;;5.15;2.40;;;;;;;17.29;27.66;93780.50;5033991;28;20056;-48
2021/01/02 10:32:34;;;;;;;2.80;1.38;;;;;;;17.43;26.74;93803.91;5062499;28;20115;-55
2021/01/02 10:35:00;;;;;;;3.17;1.70;;;;;;;16.73;28.67;93804.13;5058253;28;20553;-54
2021/01/02 10:37:28;;;;;;;2.80;2.00;;;;;;;16.91;28.09;93805.53;5065036;28;20027;-51
2021/01/02 10:39:54;;;;;;;1.85;1.40;;;;;;;16.95;28.65;93798.19;5059881;28;20060;-49
2021/01/02 10:42:28;;;;;;;2.05;1.45;;;;;;;17.01;28.18;93798.66;5062683;28;20021;-53
2021/01/02 10:44:54;;;;;;;3.05;1.88;;;;;;;17.22;28.41;93803.69;5060020;28;20505;-51
2021/01/02 10:47:22;;;;;;;3.78;2.70;;;;;;;17.05;29.50;93793.38;5067838;28;20060;-49
2021/01/02 10:49:48;;;;;;;2.20;1.55;;;;;;;17.62;29.02;93784.41;5067824;28;20032;-47
2021/01/02 10:52:15;;;;;;;3.85;1.92;;;;;;;17.21;29.25;93786.22;5068267;28;20064;-45
2021/01/02 10:54:45;;;;;;;2.78;1.50;;;;;;;16.97;30.17;93778.06;5069551;28;20154;-47
2021/01/02 10:57:11;;;;;;;3.13;2.00;;;;;;;17.59;29.05;93754.09;5069698;28;20021;-47
2021/01/02 10:59:37;;;;;;;2.15;1.70;;;;;;;16.80;29.76;93751.03;5075073;28;20512;-48
2021/01/02 11:02:03;;;;;;;6.10;2.50;;;;;;;16.13;31.13;93775.03;5079383;28;20115;-50
2021/01/02 11:04:29;;;;;;;3.25;1.83;;;;;;;16.96;30.38;93773.81;5072316;28;20124;-53
2021/01/02 11:06:56;;;;;;;1.77;1.33;;;;;;;16.75;30.68;93770.81;5071992;28;20028;-51
2021/01/02 11:09:23;;;;;;;2.80;1.30;;;;;;;16.95;29.84;93773.09;5065837;28;20112;-52
2021/01/02 11:11:51;;;;;;;2.85;1.50;;;;;;;17.40;28.35;93771.56;5062916;28;20027;-53
2021/01/02 11:14:16;;;;;;;2.10;1.90;;;;;;;17.28;29.38;93768.59;5061764;28;20031;-52
2021/01/02 11:16:43;;;;;;;2.95;1.92;;;;;;;17.25;29.32;93769.03;5073541;28;20111;-50
2021/01/02 11:19:29;;;;;;;4.22;1.42;;;;;;;17.18;29.15;93772.69;5073470;28;20047;-53
2021/01/02 11:21:56;;;;;;;2.03;1.30;;;;;;;17.15;28.39;93766.22;5070714;28;20500;-51
2021/01/02 11:24:25;;;;;;;2.20;1.88;;;;;;;16.89;29.08;93750.31;5073654;28;20028;-52
2021/01/02 11:26:52;;;;;;;4.90;1.95;;;;;;;16.18;30.31;93757.31;5066056;28;20502;-51
2021/01/02 11:29:20;;;;;;;2.85;1.83;;;;;;;16.02;30.60;93754.03;5035804;28;20044;-49
2021/01/02 11:31:46;;;;;;;2.60;1.55;;;;;;;15.81;31.17;93753.72;5057819;28;20028;-51
2021/01/02 11:34:12;;;;;;;5.15;2.65;;;;;;;15.90;30.94;93750.25;5053734;28;20417;-51
2021/01/02 11:36:38;;;;;;;3.95;2.13;;;;;;;15.94;31.13;93758.94;5052039;28;20029;-52